sensor_id;sensor_type;location;lat;lon;timestamp;temperature;humidity
35305;DHT22;26433;48.034;-1.764;2023-05-07T05:04:34;16.70;99.90
35305;DHT22;26433;48.034;-1.764;2023-05-07T05:09:38;16.70;99.90
35305;DHT22;26433;48.034;-1.764;2023-05-07T05:14:42;16.80;99.90
35305;DHT22;26433;48.034;-1.764;2023-05-07T05:19:48;16.80;99.90
35305;DHT22;26433;48.034;-1.764;2023-05-07T05:24:52;16.80;99.90
35305;DHT22;26433;48.034;-1.764;2023-05-07T05:29:56;16.80;99.90
35305;DHT22;26433;48.034;-1.764;2023-05-07T05:35:02;16.80;99.90
35305;DHT22;26433;48.034;-1.764;2023-05-07T05:40:06;16.90;99.90
35305;DHT22;26433;48.034;-1.764;2023-05-07T05:45:11;16.90;99.90
35305;DHT22;26433;48.034;-1.764;2023-05-07T05:50:16;16.90;99.90
35305;DHT22;26433;48.034;-1.764;2023-05-07T05:55:20;16.90;99.90
35305;DHT22;26433;48.034;-1.764;2023-05-07T06:00:24;17.00;99.90
35305;DHT22;26433;48.034;-1.764;2023-05-07T06:05:32;17.10;99.90
35305;DHT22;26433;48.034;-1.764;2023-05-07T06:10:36;17.20;99.90
35305;DHT22;26433;48.034;-1.764;2023-05-07T06:15:40;17.30;99.90
35305;DHT22;26433;48.034;-1.764;2023-05-07T06:20:46;17.30;99.90
35305;DHT22;26433;48.034;-1.764;2023-05-07T06:25:51;17.50;99.90
35305;DHT22;26433;48.034;-1.764;2023-05-07T06:31:06;17.50;99.90
35305;DHT22;26433;48.034;-1.764;2023-05-07T06:36:15;17.70;99.90
35305;DHT22;26433;48.034;-1.764;2023-05-07T06:41:19;17.80;99.90
35305;DHT22;26433;48.034;-1.764;2023-05-07T06:46:23;17.90;99.90
35305;DHT22;26433;48.034;-1.764;2023-05-07T06:51:29;18.10;99.90
35305;DHT22;26433;48.034;-1.764;2023-05-07T06:56:36;18.00;99.90
35305;DHT22;26433;48.034;-1.764;2023-05-07T07:01:39;18.10;99.90
35305;DHT22;26433;48.034;-1.764;2023-05-07T07:06:45;18.20;99.90
35305;DHT22;26433;48.034;-1.764;2023-05-07T07:11:49;18.20;99.90
35305;DHT22;26433;48.034;-1.764;2023-05-07T07:21:59;18.20;99.90
35305;DHT22;26433;48.034;-1.764;2023-05-07T07:27:04;18.40;99.90
35305;DHT22;26433;48.034;-1.764;2023-05-07T07:32:08;18.50;99.90
35305;DHT22;26433;48.034;-1.764;2023-05-07T07:37:13;18.70;99.90
35305;DHT22;26433;48.034;-1.764;2023-05-07T07:42:17;19.30;99.90
35305;DHT22;26433;48.034;-1.764;2023-05-07T07:47:21;19.00;99.90
35305;DHT22;26433;48.034;-1.764;2023-05-07T07:52:26;19.20;99.90
35305;DHT22;26433;48.034;-1.764;2023-05-07T07:57:30;19.30;99.90
35305;DHT22;26433;48.034;-1.764;2023-05-07T08:02:34;19.40;99.90
35305;DHT22;26433;48.034;-1.764;2023-05-07T08:07:40;19.60;99.90
35305;DHT22;26433;48.034;-1.764;2023-05-07T08:12:44;19.80;99.90
35305;DHT22;26433;48.034;-1.764;2023-05-07T08:22:54;19.80;99.90
35305;DHT22;26433;48.034;-1.764;2023-05-07T08:27:58;19.70;99.90
35305;DHT22;26433;48.034;-1.764;2023-05-07T08:33:02;19.60;99.90
35305;DHT22;26433;48.034;-1.764;2023-05-07T08:38:07;19.50;99.90
35305;DHT22;26433;48.034;-1.764;2023-05-07T08:43:12;19.40;99.90
35305;DHT22;26433;48.034;-1.764;2023-05-07T08:48:17;19.30;99.90
35305;DHT22;26433;48.034;-1.764;2023-05-07T08:53:23;19.20;99.90
35305;DHT22;26433;48.034;-1.764;2023-05-07T08:58:27;19.20;99.90
35305;DHT22;26433;48.034;-1.764;2023-05-07T09:03:31;19.10;99.90
35305;DHT22;26433;48.034;-1.764;2023-05-07T09:08:36;19.10;99.90
35305;DHT22;26433;48.034;-1.764;2023-05-07T09:13:40;19.10;99.90
35305;DHT22;26433;48.034;-1.764;2023-05-07T09:18:44;19.10;99.90
35305;DHT22;26433;48.034;-1.764;2023-05-07T09:23:52;19.10;99.90
35305;DHT22;26433;48.034;-1.764;2023-05-07T09:28:58;19.00;99.90
35305;DHT22;26433;48.034;-1.764;2023-05-07T09:39:09;18.90;99.90
35305;DHT22;26433;48.034;-1.764;2023-05-07T09:44:13;18.80;99.90
35305;DHT22;26433;48.034;-1.764;2023-05-07T09:49:23;18.70;99.90
35305;DHT22;26433;48.034;-1.764;2023-05-07T09:54:30;18.70;99.90
35305;DHT22;26433;48.034;-1.764;2023-05-07T09:59:37;18.80;99.90
35305;DHT22;26433;48.034;-1.764;2023-05-07T10:04:42;19.00;99.90
35305;DHT22;26433;48.034;-1.764;2023-05-07T10:09:49;19.50;99.90
35305;DHT22;26433;48.034;-1.764;2023-05-07T10:14:54;20.50;99.30
35305;DHT22;26433;48.034;-1.764;2023-05-07T10:20:00;20.90;97.40
35305;DHT22;26433;48.034;-1.764;2023-05-07T10:25:14;21.30;96.60
35305;DHT22;26433;48.034;-1.764;2023-05-07T10:30:26;21.80;95.10
35305;DHT22;26433;48.034;-1.764;2023-05-07T10:35:37;22.10;94.00
35305;DHT22;26433;48.034;-1.764;2023-05-07T10:40:45;22.40;93.20
35305;DHT22;26433;48.034;-1.764;2023-05-07T10:46:15;22.70;92.70
35305;DHT22;26433;48.034;-1.764;2023-05-07T10:51:21;23.30;90.70
35305;DHT22;26433;48.034;-1.764;2023-05-07T10:56:28;23.90;88.70
35305;DHT22;26433;48.034;-1.764;2023-05-07T11:01:50;24.40;85.90
35305;DHT22;26433;48.034;-1.764;2023-05-07T11:07:25;24.10;84.00
35305;DHT22;26433;48.034;-1.764;2023-05-07T11:12:53;24.10;84.00
35305;DHT22;26433;48.034;-1.764;2023-05-07T11:17:58;23.70;86.00
35305;DHT22;26433;48.034;-1.764;2023-05-07T11:23:04;23.30;88.20
35305;DHT22;26433;48.034;-1.764;2023-05-07T11:28:09;23.00;89.10
35305;DHT22;26433;48.034;-1.764;2023-05-07T11:33:17;22.80;89.90
35305;DHT22;26433;48.034;-1.764;2023-05-07T11:38:22;22.70;89.70
35305;DHT22;26433;48.034;-1.764;2023-05-07T11:43:28;22.70;88.40
35305;DHT22;26433;48.034;-1.764;2023-05-07T11:53:37;23.10;84.60
35305;DHT22;26433;48.034;-1.764;2023-05-07T11:58:43;23.10;85.30
35305;DHT22;26433;48.034;-1.764;2023-05-07T12:03:47;23.10;85.00
35305;DHT22;26433;48.034;-1.764;2023-05-07T12:08:51;22.90;85.10
35305;DHT22;26433;48.034;-1.764;2023-05-07T12:13:56;22.40;86.00
35305;DHT22;26433;48.034;-1.764;2023-05-07T12:19:01;22.40;86.60
35305;DHT22;26433;48.034;-1.764;2023-05-07T12:24:05;22.10;87.70
35305;DHT22;26433;48.034;-1.764;2023-05-07T12:29:10;22.10;88.60
35305;DHT22;26433;48.034;-1.764;2023-05-07T12:34:14;22.00;88.50
35305;DHT22;26433;48.034;-1.764;2023-05-07T12:39:18;22.10;88.20
35305;DHT22;26433;48.034;-1.764;2023-05-07T12:44:24;23.80;79.60
35305;DHT22;26433;48.034;-1.764;2023-05-07T12:49:27;23.70;80.20
35305;DHT22;26433;48.034;-1.764;2023-05-07T12:54:32;25.20;74.00
35305;DHT22;26433;48.034;-1.764;2023-05-07T12:59:40;25.50;72.30
35305;DHT22;26433;48.034;-1.764;2023-05-07T13:14:55;25.00;73.20
35305;DHT22;26433;48.034;-1.764;2023-05-07T13:19:58;24.90;74.00
35305;DHT22;26433;48.034;-1.764;2023-05-07T13:25:04;24.80;74.40
35305;DHT22;26433;48.034;-1.764;2023-05-07T13:30:09;24.80;74.00
35305;DHT22;26433;48.034;-1.764;2023-05-07T13:35:12;24.70;74.10
35305;DHT22;26433;48.034;-1.764;2023-05-07T13:40:16;24.40;75.50
35305;DHT22;26433;48.034;-1.764;2023-05-07T13:45:21;24.30;74.70
35305;DHT22;26433;48.034;-1.764;2023-05-07T13:50:28;24.20;75.30
35305;DHT22;26433;48.034;-1.764;2023-05-07T14:00:37;24.60;72.60
35305;DHT22;26433;48.034;-1.764;2023-05-07T14:05:41;24.60;73.40
35305;DHT22;26433;48.034;-1.764;2023-05-07T14:10:45;24.60;72.90
35305;DHT22;26433;48.034;-1.764;2023-05-07T14:15:50;24.40;72.40
35305;DHT22;26433;48.034;-1.764;2023-05-07T14:31:03;24.30;72.30
35305;DHT22;26433;48.034;-1.764;2023-05-07T14:36:08;24.30;72.80
35305;DHT22;26433;48.034;-1.764;2023-05-07T14:41:12;24.20;72.60
35305;DHT22;26433;48.034;-1.764;2023-05-07T14:46:19;23.80;72.30
35305;DHT22;26433;48.034;-1.764;2023-05-07T14:51:27;23.80;73.10
35305;DHT22;26433;48.034;-1.764;2023-05-07T15:01:36;23.80;72.80
35305;DHT22;26433;48.034;-1.764;2023-05-07T15:06:40;23.90;72.60
35305;DHT22;26433;48.034;-1.764;2023-05-07T15:16:49;23.70;72.00
35305;DHT22;26433;48.034;-1.764;2023-05-07T15:32:02;23.20;73.20
35305;DHT22;26433;48.034;-1.764;2023-05-07T15:47:15;23.00;73.20
35305;DHT22;26433;48.034;-1.764;2023-05-07T15:52:19;23.10;73.50
35305;DHT22;26433;48.034;-1.764;2023-05-07T16:02:28;22.80;73.20
35305;DHT22;26433;48.034;-1.764;2023-05-07T16:07:32;22.80;74.10
35305;DHT22;26433;48.034;-1.764;2023-05-07T16:17:41;22.40;74.30
35305;DHT22;26433;48.034;-1.764;2023-05-07T16:27:52;22.30;74.70
35305;DHT22;26433;48.034;-1.764;2023-05-07T16:32:57;22.30;75.30
35305;DHT22;26433;48.034;-1.764;2023-05-07T16:48:17;21.80;75.60
35305;DHT22;26433;48.034;-1.764;2023-05-07T16:53:22;21.70;76.40
35305;DHT22;26433;48.034;-1.764;2023-05-07T17:03:31;21.40;76.30
35305;DHT22;26433;48.034;-1.764;2023-05-07T17:13:40;21.30;76.50
35305;DHT22;26433;48.034;-1.764;2023-05-07T17:18:45;21.10;77.60
35305;DHT22;26433;48.034;-1.764;2023-05-07T17:33:58;20.80;77.60
35305;DHT22;26433;48.034;-1.764;2023-05-07T17:39:02;20.70;78.80
35305;DHT22;26433;48.034;-1.764;2023-05-07T17:49:13;20.40;78.40
35305;DHT22;26433;48.034;-1.764;2023-05-07T17:59:22;20.40;78.70
35305;DHT22;26433;48.034;-1.764;2023-05-07T18:04:27;20.30;79.70
35305;DHT22;26433;48.034;-1.764;2023-05-07T18:14:35;20.10;79.40
35305;DHT22;26433;48.034;-1.764;2023-05-07T18:19:41;19.90;80.20
35305;DHT22;26433;48.034;-1.764;2023-05-07T18:24:45;19.80;80.90
35305;DHT22;26433;48.034;-1.764;2023-05-07T18:34:53;19.60;81.30
35305;DHT22;26433;48.034;-1.764;2023-05-07T18:39:57;19.60;82.10
35305;DHT22;26433;48.034;-1.764;2023-05-07T18:45:04;19.50;82.30
35305;DHT22;26433;48.034;-1.764;2023-05-07T18:50:10;19.50;82.80
35305;DHT22;26433;48.034;-1.764;2023-05-07T18:55:15;19.30;83.20
35305;DHT22;26433;48.034;-1.764;2023-05-07T19:00:19;19.30;83.50
35305;DHT22;26433;48.034;-1.764;2023-05-07T19:05:24;19.20;83.80
35305;DHT22;26433;48.034;-1.764;2023-05-07T19:10:28;19.10;84.30
35305;DHT22;26433;48.034;-1.764;2023-05-07T19:20:36;18.90;85.00
35305;DHT22;26433;48.034;-1.764;2023-05-07T19:25:40;18.80;86.00
35305;DHT22;26433;48.034;-1.764;2023-05-07T19:35:49;18.60;86.40
35305;DHT22;26433;48.034;-1.764;2023-05-07T19:40:55;18.20;92.30
35305;DHT22;26433;48.034;-1.764;2023-05-07T19:51:04;18.30;87.30
35305;DHT22;26433;48.034;-1.764;2023-05-07T19:56:09;18.20;88.10
35305;DHT22;26433;48.034;-1.764;2023-05-07T20:01:13;18.10;88.40
35305;DHT22;26433;48.034;-1.764;2023-05-07T20:06:18;18.00;89.10
35305;DHT22;26433;48.034;-1.764;2023-05-07T20:11:21;17.90;89.40
35305;DHT22;26433;48.034;-1.764;2023-05-07T20:21:31;17.70;89.80
35305;DHT22;26433;48.034;-1.764;2023-05-07T20:26:35;17.60;90.20
35305;DHT22;26433;48.034;-1.764;2023-05-07T20:31:38;17.50;90.30
35305;DHT22;26433;48.034;-1.764;2023-05-07T20:36:43;17.40;90.40
35305;DHT22;26433;48.034;-1.764;2023-05-07T20:41:47;17.30;90.60
35305;DHT22;26433;48.034;-1.764;2023-05-07T20:46:51;17.20;90.60
35305;DHT22;26433;48.034;-1.764;2023-05-07T20:51:56;17.10;90.80
35305;DHT22;26433;48.034;-1.764;2023-05-07T20:56:59;17.00;91.00
35305;DHT22;26433;48.034;-1.764;2023-05-07T21:02:04;16.90;91.20
35305;DHT22;26433;48.034;-1.764;2023-05-07T21:07:09;16.40;94.70
35305;DHT22;26433;48.034;-1.764;2023-05-07T21:17:16;16.60;95.30
35305;DHT22;26433;48.034;-1.764;2023-05-07T21:22:21;16.90;95.10
35305;DHT22;26433;48.034;-1.764;2023-05-07T21:27:26;16.60;91.60
35305;DHT22;26433;48.034;-1.764;2023-05-07T21:32:30;16.70;91.60
35305;DHT22;26433;48.034;-1.764;2023-05-07T21:37:35;16.70;91.60
35305;DHT22;26433;48.034;-1.764;2023-05-07T21:42:38;16.80;95.20
35305;DHT22;26433;48.034;-1.764;2023-05-07T21:47:42;16.70;95.40
35305;DHT22;26433;48.034;-1.764;2023-05-07T21:52:47;16.50;91.60
35305;DHT22;26433;48.034;-1.764;2023-05-07T21:57:50;16.50;91.80
35305;DHT22;26433;48.034;-1.764;2023-05-07T22:03:06;16.50;92.00
35305;DHT22;26433;48.034;-1.764;2023-05-07T22:08:11;16.50;91.90
35305;DHT22;26433;48.034;-1.764;2023-05-07T22:13:14;16.50;91.90
35305;DHT22;26433;48.034;-1.764;2023-05-07T22:23:23;16.40;92.00
35305;DHT22;26433;48.034;-1.764;2023-05-07T22:28:27;16.30;92.50
